Time;durP1;ratioP1;P1;durP2;ratioP2;P2;SDS_P1;SDS_P2;PMS_P1;PMS_P2;Temp;Humidity;BMP_temperature;BMP_pressure;BME280_temperature;BME280_humidity;BME280_pressure;Samples;Min_cycle;Max_cycle;Signal;HPM_P1;HPM_P2
2021/10/12 00:00:01;;;;;;;38.35;23.30;;;;;;;12.08;100.00;101035.88;5096915;28;20092;-72
2021/10/12 00:02:46;;;;;;;38.30;23.23;;;;;;;12.20;100.00;101026.03;5080958;28;20031;-71
2021/10/12 00:05:32;;;;;;;34.25;21.80;;;;;;;12.38;100.00;101030.06;5097305;28;20059;-72
2021/10/12 00:08:18;;;;;;;35.28;21.73;;;;;;;12.24;100.00;101018.94;5096089;28;20087;-72
2021/10/12 00:11:04;;;;;;;44.65;24.48;;;;;;;12.05;100.00;101015.81;5096169;28;20032;-71
2021/10/12 00:13:50;;;;;;;40.47;25.17;;;;;;;12.49;100.00;101007.91;5080936;28;20032;-72
2021/10/12 00:16:35;;;;;;;42.08;25.00;;;;;;;12.44;100.00;101016.78;5082549;28;20035;-71
2021/10/12 00:19:22;;;;;;;38.80;24.75;;;;;;;12.29;100.00;100998.69;5096468;28;20397;-71
2021/10/12 00:22:08;;;;;;;43.53;25.92;;;;;;;12.12;100.00;100990.28;5096381;28;20031;-71
2021/10/12 00:24:53;;;;;;;47.40;25.27;;;;;;;12.38;100.00;100991.50;5082220;28;20024;-71
2021/10/12 00:27:39;;;;;;;41.08;25.45;;;;;;;12.21;100.00;100990.09;5080824;28;20055;-72
2021/10/12 00:30:25;;;;;;;47.30;28.27;;;;;;;12.48;100.00;100998.31;5096527;28;20030;-71
2021/10/12 00:33:11;;;;;;;45.70;28.05;;;;;;;12.46;100.00;100986.94;5095896;28;20371;-72
2021/10/12 00:35:57;;;;;;;41.75;25.70;;;;;;;12.23;100.00;100983.06;5081253;28;20411;-73
2021/10/12 00:38:43;;;;;;;42.38;28.08;;;;;;;12.18;100.00;100984.94;5095811;28;20049;-72
2021/10/12 00:41:29;;;;;;;59.22;31.40;;;;;;;12.38;100.00;100982.75;5095929;28;20483;-71
2021/10/12 00:44:15;;;;;;;38.50;27.10;;;;;;;12.39;100.00;100990.63;5095182;28;20448;-71
2021/10/12 00:47:01;;;;;;;47.08;28.65;;;;;;;12.30;100.00;100987.31;5097419;28;20088;-71
2021/10/12 00:49:47;;;;;;;41.63;28.90;;;;;;;12.23;100.00;100993.56;5095343;28;20476;-71
2021/10/12 00:52:35;;;;;;;48.83;29.00;;;;;;;12.48;100.00;100990.44;5096005;28;20032;-71
2021/10/12 00:55:21;;;;;;;42.15;27.85;;;;;;;12.42;100.00;100980.03;5095232;28;20028;-71
2021/10/12 00:58:09;;;;;;;43.85;27.60;;;;;;;12.27;100.00;100974.22;5095567;28;20020;-71
2021/10/12 01:00:55;;;;;;;42.58;27.98;;;;;;;12.27;100.00;100971.59;5095521;28;20455;-71
2021/10/12 01:03:41;;;;;;;45.20;27.52;;;;;;;12.30;100.00;100963.66;5095929;28;20028;-71
2021/10/12 01:06:26;;;;;;;40.58;26.52;;;;;;;12.09;100.00;100972.81;5095211;28;20044;-71
2021/10/12 01:09:12;;;;;;;48.42;28.13;;;;;;;12.13;100.00;100977.13;5093709;28;20039;-71
2021/10/12 01:11:59;;;;;;;48.65;27.63;;;;;;;12.41;100.00;100975.66;5094725;28;20038;-71
2021/10/12 01:14:45;;;;;;;38.25;25.33;;;;;;;11.98;100.00;100959.03;5094567;28;20038;-71
2021/10/12 01:17:31;;;;;;;49.55;29.63;;;;;;;12.60;100.00;100965.63;5095609;28;20416;-72
2021/10/12 01:20:17;;;;;;;42.90;26.67;;;;;;;12.37;100.00;100955.63;5094216;28;20034;-71
2021/10/12 01:23:03;;;;;;;41.50;26.15;;;;;;;12.30;100.00;100943.50;5095264;28;20426;-72
2021/10/12 01:25:49;;;;;;;42.50;27.63;;;;;;;12.55;100.00;100955.25;5094999;28;20124;-72
2021/10/12 01:28:34;;;;;;;42.88;27.40;;;;;;;12.57;100.00;100942.03;5080071;28;20468;-71
2021/10/12 01:31:25;;;;;;;40.92;26.48;;;;;;;12.63;100.00;100950.69;5093860;28;20329;-71
2021/10/12 01:34:20;;;;;;;41.72;25.85;;;;;;;12.34;100.00;100945.16;5095941;28;20047;-71
2021/10/12 01:37:05;;;;;;;36.55;24.85;;;;;;;12.25;100.00;100950.63;5079863;28;20124;-71
2021/10/12 01:39:51;;;;;;;41.53;27.40;;;;;;;12.22;100.00;100958.53;5079839;28;20023;-72
2021/10/12 01:42:37;;;;;;;41.50;27.50;;;;;;;12.49;100.00;100959.72;5093820;28;20448;-72
2021/10/12 01:45:24;;;;;;;48.55;29.42;;;;;;;12.56;100.00;100959.59;5094488;28;20058;-71
2021/10/12 01:48:10;;;;;;;42.50;27.88;;;;;;;12.68;100.00;100935.66;5078882;28;20024;-71
2021/10/12 01:50:56;;;;;;;47.72;28.92;;;;;;;12.20;100.00;100934.09;5094025;28;20032;-71
2021/10/12 01:53:42;;;;;;;49.58;28.98;;;;;;;12.07;100.00;100935.25;5079786;28;20027;-71
2021/10/12 01:56:29;;;;;;;45.88;27.33;;;;;;;12.29;100.00;100933.88;5094901;28;20038;-71
2021/10/12 01:59:15;;;;;;;42.40;28.35;;;;;;;12.13;100.00;100932.47;5094694;28;20027;-71
2021/10/12 02:02:02;;;;;;;43.17;27.73;;;;;;;12.02;100.00;100936.22;5094323;28;20040;-70
2021/10/12 02:04:47;;;;;;;40.70;25.83;;;;;;;12.12;100.00;100932.50;5081041;28;20125;-70
2021/10/12 02:07:33;;;;;;;43.13;27.75;;;;;;;12.03;100.00;100941.44;5092675;28;20048;-71
2021/10/12 02:10:19;;;;;;;49.05;29.92;;;;;;;12.56;100.00;100930.69;5094220;28;20031;-72
2021/10/12 02:13:05;;;;;;;52.15;29.08;;;;;;;12.26;100.00;100928.69;5095100;28;20047;-71
2021/10/12 02:15:50;;;;;;;48.65;28.95;;;;;;;12.35;100.00;100930.28;5092948;28;20035;-71
2021/10/12 02:18:36;;;;;;;44.20;28.77;;;;;;;12.31;100.00;100918.97;5093585;28;20356;-71
2021/10/12 02:21:22;;;;;;;47.13;31.17;;;;;;;12.19;100.00;100908.72;5092938;28;20028;-72
2021/10/12 02:24:09;;;;;;;46.65;29.48;;;;;;;12.25;100.00;100905.06;5094365;28;20028;-71
2021/10/12 02:26:54;;;;;;;43.25;28.83;;;;;;;11.91;100.00;100891.81;5092717;28;20098;-71
2021/10/12 02:29:40;;;;;;;53.97;31.02;;;;;;;12.00;100.00;100890.72;5093201;28;20020;-71
2021/10/12 02:32:26;;;;;;;49.17;32.35;;;;;;;11.89;100.00;100883.06;5093568;28;20024;-71
2021/10/12 02:35:12;;;;;;;54.42;33.42;;;;;;;11.86;100.00;100885.75;5094184;28;20416;-71
2021/10/12 02:37:57;;;;;;;41.95;29.02;;;;;;;11.83;100.00;100895.47;5093932;28;20185;-71
2021/10/12 02:40:43;;;;;;;52.78;33.10;;;;;;;11.85;100.00;100901.56;5094144;28;20352;-71
2021/10/12 02:43:29;;;;;;;58.90;35.67;;;;;;;12.19;100.00;100898.22;5093847;28;20024;-71
2021/10/12 02:46:15;;;;;;;50.08;35.10;;;;;;;12.04;100.00;100898.53;5079607;28;20024;-71
2021/10/12 02:49:00;;;;;;;61.92;38.47;;;;;;;11.84;100.00;100900.69;5093778;28;20024;-71
2021/10/12 02:51:46;;;;;;;60.78;38.03;;;;;;;12.07;100.00;100897.59;5093692;28;20334;-71
2021/10/12 02:54:32;;;;;;;62.22;40.10;;;;;;;11.94;100.00;100891.72;5094088;28;20039;-70
2021/10/12 02:57:18;;;;;;;56.30;38.75;;;;;;;12.18;100.00;100893.84;5094044;28;20074;-71
2021/10/12 03:00:06;;;;;;;64.63;42.00;;;;;;;12.25;100.00;100892.81;5092973;28;20043;-71
2021/10/12 03:02:52;;;;;;;71.97;45.33;;;;;;;11.95;100.00;100889.97;5078851;28;20083;-71
2021/10/12 03:05:43;;;;;;;82.18;48.30;;;;;;;11.93;100.00;100890.00;5093361;28;20028;-72
2021/10/12 03:08:29;;;;;;;66.28;43.70;;;;;;;11.68;100.00;100893.13;5093444;28;20472;-71
2021/10/12 03:11:15;;;;;;;71.03;46.40;;;;;;;12.14;100.00;100893.97;5094123;28;20032;-70
2021/10/12 03:14:01;;;;;;;61.40;43.13;;;;;;;12.24;100.00;100885.84;5093495;28;20028;-72
2021/10/12 03:16:47;;;;;;;67.53;45.15;;;;;;;12.40;100.00;100879.34;5093805;28;20086;-72
2021/10/12 03:19:32;;;;;;;74.93;46.25;;;;;;;11.99;100.00;100875.88;5078905;28;20047;-72
2021/10/12 03:22:18;;;;;;;79.88;49.65;;;;;;;11.91;100.00;100878.69;5092663;28;20103;-71
2021/10/12 03:25:04;;;;;;;81.32;50.22;;;;;;;12.14;100.00;100879.03;5093103;28;20126;-72
2021/10/12 03:27:50;;;;;;;75.00;48.13;;;;;;;12.12;100.00;100875.59;5079220;28;20035;-71
2021/10/12 03:30:36;;;;;;;68.15;45.08;;;;;;;11.85;100.00;100872.69;5092756;28;20027;-72
2021/10/12 03:33:22;;;;;;;70.93;46.33;;;;;;;12.45;100.00;100882.75;5093919;28;20403;-71
2021/10/12 03:36:15;;;;;;;65.63;44.15;;;;;;;12.64;100.00;100873.53;5093353;28;20488;-71
2021/10/12 03:39:01;;;;;;;70.32;47.30;;;;;;;12.90;100.00;100860.63;5092006;28;20348;-71
2021/10/12 03:41:46;;;;;;;67.05;45.47;;;;;;;12.84;100.00;100841.50;5093575;28;20060;-71
2021/10/12 03:44:32;;;;;;;64.00;43.78;;;;;;;13.00;100.00;100825.34;5094661;28;20094;-72
2021/10/12 03:47:18;;;;;;;68.22;46.15;;;;;;;12.81;100.00;100812.66;5096385;28;20086;-71
2021/10/12 03:50:04;;;;;;;62.13;41.60;;;;;;;12.72;100.00;100812.88;5095328;28;20030;-71
2021/10/12 03:52:50;;;;;;;73.63;44.30;;;;;;;12.43;100.00;100818.88;5096959;28;20028;-71
2021/10/12 03:55:36;;;;;;;61.97;40.15;;;;;;;12.15;100.00;100815.13;5080295;28;20027;-71
2021/10/12 03:58:22;;;;;;;65.07;43.72;;;;;;;12.29;100.00;100814.78;5097099;28;20031;-71
2021/10/12 04:01:08;;;;;;;62.80;42.30;;;;;;;12.76;100.00;100818.03;5097224;28;20099;-71
2021/10/12 04:03:54;;;;;;;63.08;39.78;;;;;;;12.71;100.00;100819.94;5097050;28;20127;-71
2021/10/12 04:06:40;;;;;;;61.35;40.50;;;;;;;12.74;100.00;100809.31;5081644;28;20080;-72
2021/10/12 04:09:25;;;;;;;58.90;39.75;;;;;;;12.76;100.00;100798.75;5095625;28;20538;-71
2021/10/12 04:12:11;;;;;;;59.97;41.00;;;;;;;12.87;100.00;100812.50;5096894;28;20103;-72
2021/10/12 04:14:57;;;;;;;60.92;40.33;;;;;;;12.99;100.00;100823.59;5083200;28;20032;-72
2021/10/12 04:17:43;;;;;;;60.92;39.22;;;;;;;12.95;100.00;100819.28;5096482;28;20032;-72
2021/10/12 04:20:30;;;;;;;56.67;38.03;;;;;;;12.59;100.00;100812.34;5096862;28;20158;-72
2021/10/12 04:23:15;;;;;;;53.53;36.00;;;;;;;12.67;100.00;100817.41;5096269;28;20055;-72
2021/10/12 04:26:05;;;;;;;52.92;36.47;;;;;;;12.28;100.00;100818.31;5095496;28;20024;-70
2021/10/12 04:28:51;;;;;;;54.38;38.42;;;;;;;12.62;100.00;100812.25;5096526;28;20105;-72
2021/10/12 04:31:37;;;;;;;52.90;36.70;;;;;;;11.99;100.00;100826.88;5094824;28;20024;-71
2021/10/12 04:34:23;;;;;;;48.30;35.83;;;;;;;11.82;100.00;100836.84;5096261;28;20369;-71
2021/10/12 04:37:08;;;;;;;49.47;35.55;;;;;;;11.88;100.00;100841.09;5096410;28;20415;-71
2021/10/12 04:39:54;;;;;;;57.35;38.17;;;;;;;12.14;100.00;100834.38;5079868;28;20028;-71
2021/10/12 04:42:40;;;;;;;60.17;40.63;;;;;;;12.08;100.00;100831.91;5081705;28;20016;-72
2021/10/12 04:45:26;;;;;;;58.65;38.47;;;;;;;11.92;100.00;100825.25;5081823;28;20093;-71
2021/10/12 04:48:14;;;;;;;57.55;37.75;;;;;;;12.32;100.00;100822.63;5081349;28;20117;-72
2021/10/12 04:51:00;;;;;;;59.55;37.97;;;;;;;12.56;100.00;100825.53;5094122;28;20027;-72
2021/10/12 04:53:46;;;;;;;52.65;37.15;;;;;;;11.91;100.00;100825.28;5080338;28;20016;-72
2021/10/12 04:56:32;;;;;;;56.55;37.45;;;;;;;12.11;100.00;100826.59;5080139;28;20481;-72
2021/10/12 04:59:17;;;;;;;52.15;37.17;;;;;;;11.87;100.00;100832.38;5081915;28;20456;-71
2021/10/12 05:02:03;;;;;;;51.50;38.03;;;;;;;12.08;100.00;100824.03;5094474;28;20445;-71
2021/10/12 05:04:49;;;;;;;52.88;37.33;;;;;;;12.07;100.00;100822.31;5095652;28;20032;-71
2021/10/12 05:07:37;;;;;;;54.83;38.92;;;;;;;11.95;100.00;100819.97;5080711;28;20044;-71
2021/10/12 05:10:24;;;;;;;56.10;37.22;;;;;;;12.07;100.00;100818.81;5093979;28;20024;-71
2021/10/12 05:13:10;;;;;;;56.15;38.90;;;;;;;12.22;100.00;100821.09;5095015;28;20337;-71
2021/10/12 05:15:58;;;;;;;50.03;36.13;;;;;;;12.02;100.00;100816.28;5080063;28;20023;-71
2021/10/12 05:18:46;;;;;;;53.08;36.85;;;;;;;12.07;100.00;100810.94;5079918;28;20475;-71
2021/10/12 05:21:32;;;;;;;56.33;38.03;;;;;;;11.88;100.00;100820.97;5094890;28;20075;-73
2021/10/12 05:24:18;;;;;;;52.72;36.67;;;;;;;11.79;100.00;100818.53;5095701;28;20055;-72
2021/10/12 05:27:05;;;;;;;58.65;36.67;;;;;;;11.58;100.00;100821.53;5095393;28;20030;-73
2021/10/12 05:29:51;;;;;;;55.45;37.40;;;;;;;11.87;100.00;100821.88;5095708;28;20027;-72
2021/10/12 05:32:37;;;;;;;56.22;36.55;;;;;;;11.67;100.00;100820.53;5094715;28;20024;-70
2021/10/12 05:35:23;;;;;;;51.20;36.00;;;;;;;11.72;100.00;100824.81;5094571;28;20111;-71
2021/10/12 05:38:09;;;;;;;51.63;35.22;;;;;;;11.90;100.00;100818.31;5093436;28;20051;-72
2021/10/12 05:40:55;;;;;;;50.20;35.40;;;;;;;11.73;100.00;100825.69;5094722;28;20338;-73
2021/10/12 05:43:41;;;;;;;52.33;35.00;;;;;;;12.00;100.00;100825.97;5094857;28;20123;-72
2021/10/12 05:46:27;;;;;;;51.45;35.47;;;;;;;11.81;100.00;100831.66;5095155;28;20097;-72
2021/10/12 05:49:13;;;;;;;49.55;35.30;;;;;;;12.41;100.00;100817.13;5094032;28;20024;-70
2021/10/12 05:52:01;;;;;;;51.97;34.58;;;;;;;12.39;100.00;100814.56;5094424;28;20030;-71
2021/10/12 05:55:05;;;;;;;50.85;34.50;;;;;;;11.96;100.00;100805.91;5094880;28;20028;-72
2021/10/12 05:58:06;;;;;;;45.15;33.25;;;;;;;11.96;100.00;100803.28;5078642;28;20034;-72
2021/10/12 06:00:53;;;;;;;46.58;33.45;;;;;;;11.89;100.00;100800.84;5095001;28;20023;-72
2021/10/12 06:03:39;;;;;;;44.95;31.98;;;;;;;12.09;100.00;100791.63;5094099;28;20024;-71
2021/10/12 06:06:25;;;;;;;50.42;32.25;;;;;;;11.90;100.00;100800.78;5079490;28;20059;-71
2021/10/12 06:09:11;;;;;;;45.03;33.42;;;;;;;12.06;100.00;100790.84;5093349;28;20024;-72
2021/10/12 06:11:57;;;;;;;51.55;33.20;;;;;;;11.88;100.00;100797.34;5080697;28;20036;-71
2021/10/12 06:14:43;;;;;;;42.47;32.53;;;;;;;12.03;100.00;100806.66;5092854;28;20028;-72
2021/10/12 06:17:29;;;;;;;49.33;32.50;;;;;;;11.97;100.00;100809.44;5094215;28;20034;-70
2021/10/12 06:20:15;;;;;;;48.42;31.88;;;;;;;12.46;100.00;100799.53;5093260;28;20367;-71
2021/10/12 06:23:01;;;;;;;48.17;31.75;;;;;;;11.77;100.00;100807.19;5093591;28;20070;-71
2021/10/12 06:25:47;;;;;;;40.50;30.90;;;;;;;12.03;100.00;100810.16;5093800;28;20051;-72
2021/10/12 06:28:34;;;;;;;51.05;33.42;;;;;;;12.20;100.00;100813.25;5094640;28;20407;-72
2021/10/12 06:31:19;;;;;;;48.60;32.88;;;;;;;12.48;100.00;100814.34;5093129;28;20036;-72
2021/10/12 06:34:06;;;;;;;47.95;31.63;;;;;;;12.37;100.00;100807.59;5094158;28;20420;-72
2021/10/12 06:36:52;;;;;;;51.38;33.20;;;;;;;12.23;100.00;100797.44;5079027;28;20029;-73
2021/10/12 06:39:37;;;;;;;52.00;33.13;;;;;;;12.21;100.00;100796.59;5093741;28;20365;-74
2021/10/12 06:42:23;;;;;;;54.28;34.17;;;;;;;12.59;100.00;100803.59;5079102;28;20271;-73
2021/10/12 06:45:11;;;;;;;61.55;43.95;;;;;;;12.80;100.00;100805.69;5093046;28;20090;-73
2021/10/12 06:47:57;;;;;;;44.83;33.05;;;;;;;12.53;100.00;100799.34;5092956;28;20055;-73
2021/10/12 06:50:42;;;;;;;43.22;30.83;;;;;;;12.86;100.00;100785.34;5093433;28;20034;-73
2021/10/12 06:53:28;;;;;;;47.03;32.50;;;;;;;12.52;100.00;100794.09;5094153;28;20032;-72
2021/10/12 06:56:14;;;;;;;49.03;31.70;;;;;;;12.71;100.00;100782.25;5092606;28;20068;-72
2021/10/12 06:59:00;;;;;;;49.97;35.35;;;;;;;12.77;100.00;100792.59;5094645;28;20444;-72
2021/10/12 07:01:45;;;;;;;50.17;33.13;;;;;;;12.49;100.00;100792.41;5093409;28;20103;-73
2021/10/12 07:04:31;;;;;;;45.85;32.67;;;;;;;12.76;100.00;100793.50;5094882;28;20121;-73
2021/10/12 07:07:17;;;;;;;51.45;32.90;;;;;;;12.90;100.00;100787.00;5092749;28;20091;-72
2021/10/12 07:10:04;;;;;;;45.72;31.15;;;;;;;12.96;100.00;100791.22;5092674;28;20028;-73
2021/10/12 07:12:52;;;;;;;49.42;32.25;;;;;;;13.22;100.00;100797.56;5092818;28;20020;-73
2021/10/12 07:15:38;;;;;;;46.13;32.33;;;;;;;13.13;100.00;100791.69;5092608;28;20438;-73
2021/10/12 07:18:24;;;;;;;43.45;31.35;;;;;;;12.97;100.00;100801.75;5094926;28;20050;-73
2021/10/12 07:21:10;;;;;;;46.55;35.22;;;;;;;13.21;100.00;100795.84;5081278;28;20023;-73
2021/10/12 07:23:56;;;;;;;47.67;32.88;;;;;;;13.24;100.00;100801.03;5082736;28;20562;-73
2021/10/12 07:26:42;;;;;;;41.35;31.52;;;;;;;12.78;100.00;100795.19;5097051;28;20123;-73
2021/10/12 07:29:27;;;;;;;45.33;30.75;;;;;;;12.65;100.00;100793.78;5096963;28;20446;-73
2021/10/12 07:32:14;;;;;;;43.50;30.45;;;;;;;12.61;100.00;100796.50;5082102;28;20070;-73
2021/10/12 07:35:00;;;;;;;44.08;30.30;;;;;;;12.26;100.00;100799.13;5083024;28;20427;-72
2021/10/12 07:37:46;;;;;;;48.92;32.33;;;;;;;12.77;100.00;100806.63;5098111;28;20403;-73
2021/10/12 07:40:32;;;;;;;47.83;32.38;;;;;;;12.32;100.00;100797.22;5097508;28;20020;-70
2021/10/12 07:43:18;;;;;;;51.15;35.10;;;;;;;12.18;100.00;100794.03;5096248;28;20032;-73
2021/10/12 07:46:04;;;;;;;51.40;33.28;;;;;;;12.34;100.00;100803.28;5082597;28;20110;-73
2021/10/12 07:48:52;;;;;;;50.88;34.00;;;;;;;12.45;100.00;100806.53;5095579;28;20081;-73
2021/10/12 07:51:37;;;;;;;52.25;34.97;;;;;;;12.56;100.00;100801.91;5097223;28;20035;-73
2021/10/12 07:54:37;;;;;;;49.00;35.20;;;;;;;12.64;100.00;100797.31;5096217;28;20036;-73
2021/10/12 07:57:23;;;;;;;52.08;34.30;;;;;;;12.24;100.00;100791.28;5080668;28;20452;-73
2021/10/12 08:00:10;;;;;;;56.92;39.13;;;;;;;12.74;100.00;100792.69;5095642;28;20079;-72
2021/10/12 08:02:57;;;;;;;56.47;37.28;;;;;;;12.40;100.00;100789.16;5097211;28;20103;-72
2021/10/12 08:05:43;;;;;;;55.50;36.63;;;;;;;12.44;100.00;100788.16;5095787;28;20405;-72
2021/10/12 08:08:30;;;;;;;53.28;36.45;;;;;;;12.03;100.00;100783.88;5096462;28;20437;-73
2021/10/12 08:11:17;;;;;;;53.85;36.85;;;;;;;12.15;100.00;100781.00;5095201;28;20032;-73
2021/10/12 08:14:05;;;;;;;49.88;33.97;;;;;;;11.86;100.00;100780.75;5095050;28;20491;-72
2021/10/12 08:16:51;;;;;;;49.00;34.55;;;;;;;11.62;100.00;100785.66;5095381;28;20024;-73
2021/10/12 08:19:37;;;;;;;54.10;34.65;;;;;;;11.57;100.00;100785.72;5095611;28;20024;-71
2021/10/12 08:22:23;;;;;;;53.17;37.90;;;;;;;11.89;100.00;100782.47;5091067;28;20414;-71
2021/10/12 08:25:09;;;;;;;49.90;33.47;;;;;;;11.92;100.00;100778.00;5096123;28;20059;-71
2021/10/12 08:27:55;;;;;;;52.78;35.20;;;;;;;11.94;100.00;100773.56;5081555;28;20051;-70
2021/10/12 08:30:40;;;;;;;61.70;38.50;;;;;;;11.90;100.00;100771.91;5080640;28;20094;-71
2021/10/12 08:33:26;;;;;;;54.72;36.15;;;;;;;12.18;100.00;100762.50;5080261;28;20036;-70
2021/10/12 08:36:13;;;;;;;56.80;38.10;;;;;;;12.03;100.00;100767.25;5082071;28;20332;-70
2021/10/12 08:38:59;;;;;;;56.00;37.08;;;;;;;11.63;100.00;100764.66;5095684;28;20360;-71
2021/10/12 08:41:56;;;;;;;56.28;37.70;;;;;;;11.55;100.00;100758.66;5096194;28;20024;-71
2021/10/12 08:44:56;;;;;;;58.40;36.78;;;;;;;11.89;100.00;100766.72;5081959;28;20027;-71
2021/10/12 08:47:43;;;;;;;58.35;38.72;;;;;;;11.67;100.00;100766.31;5095040;28;20051;-72
2021/10/12 08:50:29;;;;;;;60.33;39.45;;;;;;;11.58;100.00;100760.34;5094334;28;20412;-71
2021/10/12 08:53:15;;;;;;;56.13;39.38;;;;;;;11.61;100.00;100762.97;5080847;28;20051;-70
2021/10/12 08:56:02;;;;;;;52.90;35.75;;;;;;;11.55;100.00;100765.66;5095128;28;20024;-70
2021/10/12 08:58:47;;;;;;;53.53;39.45;;;;;;;11.78;100.00;100771.31;5094406;28;20055;-71
2021/10/12 09:01:54;;;;;;;59.58;41.65;;;;;;;12.23;100.00;100767.66;5081201;28;20090;-71
2021/10/12 09:04:42;;;;;;;64.80;43.92;;;;;;;12.39;100.00;100769.03;5082019;28;20035;-71
2021/10/12 09:07:30;;;;;;;61.55;44.30;;;;;;;12.00;100.00;100764.69;5093710;28;20044;-71
2021/10/12 09:10:23;;;;;;;66.95;46.10;;;;;;;11.98;100.00;100759.47;5080620;28;20032;-71
2021/10/12 09:13:09;;;;;;;68.57;46.65;;;;;;;12.46;100.00;100762.75;5081400;28;20060;-71
2021/10/12 09:16:02;;;;;;;68.25;48.70;;;;;;;12.12;100.00;100767.03;5095660;28;20020;-71
2021/10/12 09:18:52;;;;;;;70.90;48.33;;;;;;;12.41;100.00;100768.09;5080759;28;20028;-71
2021/10/12 09:21:41;;;;;;;73.97;49.25;;;;;;;12.44;100.00;100775.91;5094890;28;20058;-71
2021/10/12 09:24:27;;;;;;;83.75;51.70;;;;;;;12.59;100.00;100775.53;5095444;28;20106;-72
2021/10/12 09:27:15;;;;;;;71.65;47.50;;;;;;;12.10;100.00;100769.69;5081110;28;20114;-72
2021/10/12 09:30:08;;;;;;;66.43;44.88;;;;;;;12.17;100.00;100770.44;5095309;28;20094;-72
2021/10/12 09:33:07;;;;;;;71.47;47.67;;;;;;;12.39;100.00;100772.53;5094373;28;20169;-72
2021/10/12 09:35:56;;;;;;;67.47;43.30;;;;;;;12.68;100.00;100769.19;5081032;28;20024;-72
2021/10/12 09:38:45;;;;;;;58.97;41.75;;;;;;;12.56;100.00;100772.97;5080383;28;20448;-72
2021/10/12 09:41:31;;;;;;;72.50;47.65;;;;;;;12.62;100.00;100761.47;5094748;28;20112;-71
2021/10/12 09:44:18;;;;;;;58.85;41.42;;;;;;;12.56;100.00;100758.97;5093606;28;20422;-72
2021/10/12 09:47:15;;;;;;;63.63;41.58;;;;;;;12.66;100.00;100755.22;5078674;28;20031;-71
2021/10/12 09:50:12;;;;;;;61.58;41.63;;;;;;;12.55;100.00;100754.63;5093246;28;20365;-72
2021/10/12 09:52:59;;;;;;;72.60;52.95;;;;;;;12.67;100.00;100744.69;5094372;28;20102;-72
2021/10/12 09:55:47;;;;;;;59.05;41.25;;;;;;;12.77;100.00;100740.00;5094575;28;20086;-71
2021/10/12 09:58:34;;;;;;;60.35;42.33;;;;;;;12.95;100.00;100735.13;5094128;28;20032;-72
2021/10/12 10:01:21;;;;;;;64.25;43.38;;;;;;;12.65;100.00;100735.94;5079351;28;20527;-72
2021/10/12 10:04:07;;;;;;;56.35;38.80;;;;;;;12.72;100.00;100727.00;5095884;28;20028;-71
2021/10/12 10:07:01;;;;;;;58.70;41.33;;;;;;;12.75;100.00;100724.31;5095107;28;20051;-71
2021/10/12 10:09:48;;;;;;;56.42;37.78;;;;;;;12.91;100.00;100722.97;5079831;28;20024;-71
2021/10/12 10:12:35;;;;;;;50.42;37.35;;;;;;;13.08;100.00;100725.19;5080290;28;20032;-71
2021/10/12 10:15:22;;;;;;;49.72;35.33;;;;;;;12.68;100.00;100717.47;5079498;28;20056;-72
2021/10/12 10:18:08;;;;;;;46.67;34.90;;;;;;;12.77;100.00;100721.63;5094443;28;20037;-71
2021/10/12 10:20:55;;;;;;;52.45;36.90;;;;;;;13.11;100.00;100714.59;5094048;28;20111;-71
2021/10/12 10:24:08;;;;;;;47.40;34.55;;;;;;;13.42;100.00;100702.31;5095204;28;20028;-72
2021/10/12 10:26:53;;;;;;;46.38;33.40;;;;;;;12.97;100.00;100700.91;5079008;28;20483;-71
2021/10/12 10:29:39;;;;;;;43.85;33.03;;;;;;;13.21;100.00;100695.00;5093757;28;20390;-72
2021/10/12 10:32:25;;;;;;;45.30;31.48;;;;;;;13.51;100.00;100691.50;5078621;28;20026;-72
2021/10/12 10:35:14;;;;;;;42.78;32.55;;;;;;;13.84;100.00;100688.69;5094606;28;20024;-71
2021/10/12 10:38:25;;;;;;;39.35;32.13;;;;;;;13.83;100.00;100680.84;5093164;28;20032;-71
2021/10/12 10:41:11;;;;;;;44.85;32.53;;;;;;;13.58;100.00;100670.19;5080050;28;20020;-71
2021/10/12 10:44:01;;;;;;;41.65;31.05;;;;;;;13.31;100.00;100675.44;5078370;28;20032;-72
2021/10/12 10:46:47;;;;;;;44.55;32.35;;;;;;;13.23;100.00;100677.41;5093289;28;20036;-72
2021/10/12 10:49:33;;;;;;;48.80;33.60;;;;;;;13.43;100.00;100670.66;5079081;28;20366;-71
2021/10/12 10:52:46;;;;;;;49.58;36.10;;;;;;;13.29;100.00;100670.19;5077861;28;20024;-71
2021/10/12 10:55:32;;;;;;;45.60;34.72;;;;;;;13.02;100.00;100668.34;5098137;28;20031;-71
2021/10/12 10:58:19;;;;;;;52.90;36.25;;;;;;;13.38;100.00;100666.47;5083118;28;20356;-72
2021/10/12 11:01:05;;;;;;;42.50;32.47;;;;;;;13.44;100.00;100666.25;5097790;28;20099;-72
2021/10/12 11:03:51;;;;;;;49.20;33.13;;;;;;;13.18;100.00;100672.28;5097752;28;20051;-72
2021/10/12 11:06:37;;;;;;;40.53;29.25;;;;;;;12.97;100.00;100672.88;5097418;28;20490;-71
2021/10/12 11:09:22;;;;;;;41.75;28.85;;;;;;;13.19;100.00;100674.00;5082044;28;20058;-71
2021/10/12 11:12:25;;;;;;;40.33;29.15;;;;;;;13.10;100.00;100668.16;5082686;28;20047;-72
2021/10/12 11:15:11;;;;;;;45.45;31.20;;;;;;;13.13;100.00;100668.91;5097320;28;20024;-72
2021/10/12 11:18:07;;;;;;;38.45;28.65;;;;;;;13.43;100.00;100665.38;5097830;28;20028;-72
2021/10/12 11:20:55;;;;;;;40.88;30.63;;;;;;;13.34;100.00;100662.19;5083045;28;20039;-71
2021/10/12 11:23:50;;;;;;;44.72;31.77;;;;;;;13.28;100.00;100665.84;5081969;28;20140;-71
2021/10/12 11:26:35;;;;;;;46.42;34.45;;;;;;;13.53;100.00;100669.47;5096890;28;20027;-71
2021/10/12 11:29:22;;;;;;;55.50;41.72;;;;;;;13.63;100.00;100675.34;5096952;28;20024;-71
2021/10/12 11:32:08;;;;;;;47.55;35.92;;;;;;;13.27;100.00;100669.38;5081683;28;20044;-71
2021/10/12 11:34:54;;;;;;;50.50;35.35;;;;;;;13.34;100.00;100667.44;5097301;28;20044;-71
2021/10/12 11:37:55;;;;;;;50.97;34.50;;;;;;;13.54;100.00;100668.56;5097667;28;20028;-72
2021/10/12 11:40:41;;;;;;;56.03;37.03;;;;;;;13.34;100.00;100670.94;5096856;28;20065;-72
2021/10/12 11:43:35;;;;;;;45.22;33.75;;;;;;;13.31;100.00;100665.75;5083037;28;20421;-72
2021/10/12 11:46:26;;;;;;;50.38;35.58;;;;;;;13.58;100.00;100661.44;5082668;28;20205;-72
2021/10/12 11:49:14;;;;;;;58.15;39.78;;;;;;;13.71;100.00;100654.91;5096558;28;20112;-71
2021/10/12 11:52:05;;;;;;;47.00;35.15;;;;;;;13.82;100.00;100656.28;5096211;28;20166;-72
2021/10/12 11:55:06;;;;;;;51.67;37.33;;;;;;;13.66;100.00;100655.03;5096537;28;20028;-72
2021/10/12 11:57:55;;;;;;;52.03;38.42;;;;;;;13.80;100.00;100652.84;5083546;28;20031;-71
2021/10/12 12:00:41;;;;;;;53.70;36.58;;;;;;;13.10;100.00;100650.59;5097285;28;20418;-71
2021/10/12 12:03:27;;;;;;;46.17;35.08;;;;;;;13.10;100.00;100650.59;5082233;28;20039;-71
2021/10/12 12:06:13;;;;;;;46.92;34.45;;;;;;;13.12;100.00;100643.53;5094705;28;20056;-70
2021/10/12 12:09:02;;;;;;;48.35;34.40;;;;;;;13.22;100.00;100636.25;5095739;28;20034;-71
2021/10/12 12:11:49;;;;;;;46.03;33.58;;;;;;;13.20;100.00;100627.50;5096442;28;20334;-71
2021/10/12 12:14:35;;;;;;;48.60;34.25;;;;;;;13.40;100.00;100631.28;5081992;28;20107;-72
2021/10/12 12:17:23;;;;;;;46.88;33.10;;;;;;;13.14;100.00;100639.06;5096887;28;20089;-72
2021/10/12 12:20:11;;;;;;;45.45;33.97;;;;;;;13.24;100.00;100627.38;5096415;28;20020;-72
2021/10/12 12:22:56;;;;;;;42.08;30.00;;;;;;;12.52;100.00;100634.69;5095959;28;20431;-71
2021/10/12 12:25:42;;;;;;;47.13;31.83;;;;;;;12.46;100.00;100631.34;5096589;28;20054;-72
2021/10/12 12:28:28;;;;;;;45.95;33.40;;;;;;;12.85;100.00;100627.63;5096379;28;20036;-71
2021/10/12 12:31:22;;;;;;;41.40;30.13;;;;;;;12.83;100.00;100637.34;5095463;28;20432;-71